»·PEaware :: N4245G KVNY-KSJC

N4245G :: KVNY-KSJC

FLIGHT INFORMATION

Flight Status: Arrived
Operator: Privately registered:
United States
More flights under this callsign
Pilot: Jamie L. (18851)
Aircraft: BEECH AIRCRAFT PREMIER
(PRM1)
More flights by this aircraft type
Origin: KVNY Van Nuys
United States
Destination: KSJC Mineta San Jose Intl
United States
More flights between these airports :: More routes between these airports
Route: +WLKKR2 COREZ V248 AVE ROBIE4
File this flight plan on PilotEdge
Remarks:
Altitude:
(Current/Filed)
29,000ft
Speed:
(Current/Filed)
260kts
Departed: 22-Apr-18 07:51 AM
Arrived: 22-Apr-18 08:51 AM
Distance/Time
Traveled:
252nm/1:00
Distance/Time
To Go:
Arrived

Flight Plot

Page will automatically refresh every two minutes.

Flight plan parsing failed; only flown route is shown


Map Options




Map Legend


Flown Route
Filed Route
Departure Airport
Arrival Airport
Navaid (VOR, NDB)
Fix

Horizontal Profiles

Position Reports

Time Latitude Longitude Heading Altitude Ground
Speed
22-Apr-18 07:13 34.204134 -118.491723 83 807ft 0kts
22-Apr-18 07:14 34.204134 -118.491723 83 807ft 0kts
22-Apr-18 07:15 34.204134 -118.491723 83 807ft 0kts
22-Apr-18 07:16 34.204134 -118.491723 83 807ft 0kts
22-Apr-18 07:17 34.204134 -118.491723 83 807ft 0kts
22-Apr-18 07:18 34.204134 -118.491723 83 807ft 0kts
22-Apr-18 07:19 34.204134 -118.491723 83 807ft 0kts
22-Apr-18 07:20 34.204134 -118.491723 83 807ft 0kts
22-Apr-18 07:21 34.204134 -118.491723 83 807ft 0kts
22-Apr-18 07:22 34.204134 -118.491723 83 807ft 0kts
22-Apr-18 07:23 34.204134 -118.491723 83 807ft 0kts
22-Apr-18 07:24 34.204134 -118.491723 83 807ft 0kts
22-Apr-18 07:25 34.204134 -118.491723 83 807ft 0kts
22-Apr-18 07:26 34.204134 -118.491723 83 807ft 0kts
22-Apr-18 07:27 34.204134 -118.491723 83 807ft 0kts
22-Apr-18 07:28 34.204134 -118.491723 83 807ft 0kts
22-Apr-18 07:29 34.204134 -118.491723 83 807ft 0kts
22-Apr-18 07:30 34.204134 -118.491723 83 807ft 0kts
22-Apr-18 07:31 34.204134 -118.491723 83 807ft 0kts
22-Apr-18 07:32 34.204134 -118.491723 83 807ft 0kts
22-Apr-18 07:33 34.204134 -118.491723 83 807ft 0kts
22-Apr-18 07:34 34.204134 -118.491723 83 807ft 0kts
22-Apr-18 07:35 34.204134 -118.491723 83 807ft 0kts
22-Apr-18 07:36 34.204134 -118.491722 83 807ft 0kts
22-Apr-18 07:37 34.205647 -118.491149 355 807ft 13kts
22-Apr-18 07:38 34.208252 -118.491368 355 807ft 16kts
22-Apr-18 07:39 34.212698 -118.491739 355 807ft 17kts
22-Apr-18 07:40 34.217610 -118.492156 355 807ft 13kts
22-Apr-18 07:41 34.218024 -118.491779 86 807ft 0kts
22-Apr-18 07:42 34.218024 -118.491779 86 807ft 0kts
22-Apr-18 07:43 34.218024 -118.491779 86 807ft 0kts
22-Apr-18 07:44 34.218024 -118.491779 86 807ft 0kts
22-Apr-18 07:45 34.218024 -118.491779 86 807ft 0kts
22-Apr-18 07:46 34.218024 -118.491779 86 807ft 0kts
22-Apr-18 07:47 34.218024 -118.491779 86 807ft 0kts
22-Apr-18 07:48 34.218024 -118.491779 86 807ft 0kts
22-Apr-18 07:49 34.217541 -118.491111 174 807ft 0kts
22-Apr-18 07:50 34.198741 -118.489365 177 1353ft 172kts
22-Apr-18 07:51 34.146486 -118.518322 222 3804ft 243kts
22-Apr-18 07:52 34.123872 -118.580955 308 5542ft 237kts
22-Apr-18 07:53 34.190087 -118.598105 352 7970ft 253kts
22-Apr-18 07:54 34.259874 -118.601692 341 10361ft 245kts
22-Apr-18 07:55 34.323594 -118.628208 332 12755ft 241kts
22-Apr-18 07:56 34.389522 -118.655870 331 13997ft 268kts
22-Apr-18 07:57 34.457678 -118.696483 323 15094ft 271kts
22-Apr-18 07:58 34.522458 -118.741619 320 17292ft 264kts
22-Apr-18 07:59 34.584911 -118.785808 319 19479ft 258kts
22-Apr-18 08:00 34.652725 -118.834390 320 21707ft 302kts
22-Apr-18 08:01 34.728559 -118.888339 320 22996ft 334kts
22-Apr-18 08:02 34.808482 -118.944867 319 24842ft 330kts
22-Apr-18 08:03 34.887425 -119.001007 319 26976ft 327kts
22-Apr-18 08:04 34.967682 -119.058628 318 28835ft 345kts
22-Apr-18 08:05 35.055289 -119.121973 319 29082ft 385kts
22-Apr-18 08:06 35.148834 -119.188986 319 29072ft 392kts
22-Apr-18 08:07 35.243216 -119.256635 319 29069ft 392kts
22-Apr-18 08:08 35.337153 -119.324369 319 29068ft 392kts
22-Apr-18 08:09 35.431237 -119.392519 318 29071ft 391kts
22-Apr-18 08:10 35.524675 -119.460714 316 29063ft 388kts
22-Apr-18 08:11 35.572421 -119.564539 278 29064ft 344kts
22-Apr-18 08:12 35.593573 -119.678752 275 29068ft 341kts
22-Apr-18 08:13 35.613431 -119.791935 275 29070ft 340kts
22-Apr-18 08:14 35.633831 -119.905558 275 29073ft 339kts
22-Apr-18 08:15 35.661504 -120.017428 281 29085ft 344kts
22-Apr-18 08:16 35.696400 -120.127381 283 29081ft 345kts
22-Apr-18 08:17 35.732064 -120.236853 283 29082ft 345kts
22-Apr-18 08:18 35.767890 -120.346691 283 29084ft 345kts
22-Apr-18 08:19 35.803518 -120.456209 283 29087ft 345kts
22-Apr-18 08:20 35.839195 -120.566252 283 29089ft 345kts
22-Apr-18 08:21 35.874695 -120.676166 283 29089ft 345kts
22-Apr-18 08:22 35.910129 -120.786272 283 29090ft 346kts
22-Apr-18 08:23 35.945570 -120.896836 283 29092ft 346kts
22-Apr-18 08:24 35.988463 -121.001899 300 28480ft 355kts
22-Apr-18 08:25 36.064069 -121.079493 310 26608ft 342kts
22-Apr-18 08:26 36.141099 -121.146805 311 24354ft 334kts
22-Apr-18 08:27 36.216017 -121.211695 312 21863ft 324kts
22-Apr-18 08:28 36.287719 -121.273851 312 20282ft 309kts
22-Apr-18 08:29 36.357718 -121.334945 312 20136ft 304kts
22-Apr-18 08:30 36.401420 -121.373143 312 20139ft 302kts
22-Apr-18 08:31 36.468937 -121.431896 312 19025ft 282kts
22-Apr-18 08:32 36.531972 -121.487114 312 17031ft 278kts
22-Apr-18 08:33 36.594423 -121.542117 313 15321ft 272kts
22-Apr-18 08:34 36.658182 -121.591267 334 13586ft 275kts
22-Apr-18 08:35 36.733368 -121.595505 354 11796ft 275kts
22-Apr-18 08:36 36.807798 -121.573908 8 10013ft 260kts
22-Apr-18 08:37 36.873616 -121.550139 9 8281ft 229kts
22-Apr-18 08:38 36.933143 -121.530399 2 8058ft 243kts
22-Apr-18 08:39 37.002607 -121.522052 358 8041ft 254kts
22-Apr-18 08:40 37.044212 -121.566599 289 8039ft 190kts
22-Apr-18 08:41 37.078507 -121.618887 312 7079ft 204kts
22-Apr-18 08:42 37.120178 -121.665140 315 5527ft 194kts
22-Apr-18 08:43 37.160125 -121.708555 315 4119ft 171kts
22-Apr-18 08:44 37.194848 -121.745792 315 3693ft 188kts
22-Apr-18 08:45 37.232527 -121.787602 316 2819ft 165kts
22-Apr-18 08:46 37.268479 -121.826234 316 2368ft 168kts
22-Apr-18 08:47 37.299557 -121.861230 319 1398ft 158kts
22-Apr-18 08:48 37.332947 -121.896678 315 813ft 135kts
22-Apr-18 08:49 37.359073 -121.925921 318 68ft 100kts
22-Apr-18 08:50 37.362021 -121.931979 228 67ft 13kts
22-Apr-18 08:51 37.359330 -121.930939 138 67ft 13kts
22-Apr-18 08:52 37.358122 -121.931051 51 67ft 0kts
22-Apr-18 08:53 37.358130 -121.931039 50 67ft 0kts
22-Apr-18 08:54 37.358130 -121.931039 50 67ft 0kts

Navigation Log

Ident Type
Flight plan parsing failed, navigation log unavailable